Terminal Aerodrome Forecast
Issued by NWS

Home | Current Version | Previous Version | Text Only | Print | Product List | Glossary On
Versions: 1 2 3 4 5 6 7 8 9 10 11 12 13 14 15 16 17 18 19 20 21 22 23 24 25 26
263
FTUS42 KCAE 040832 AAA
TAFOGB
TAF AMD
KOGB 040832Z 0409/0506 03003KT P6SM VCSH OVC080
     FM041500 07004KT 6SM -RA OVC035
     FM041900 07005KT 5SM -RA BR OVC025
     FM050000 07004KT 4SM -RA BR OVC012=

USA.gov is the U.S. government's official web portal to all federal, state and local government web resources and services.